createdAt,value
2022-11-07T00:01:12.518Z,12.34
2022-11-07T00:03:40.587Z,12.33
2022-11-07T00:06:09.132Z,12.40
2022-11-07T00:08:37.055Z,12.41
2022-11-07T00:11:06.539Z,12.42
2022-11-07T00:13:36.119Z,12.43
2022-11-07T00:16:06.203Z,12.44
2022-11-07T00:18:34.363Z,12.46
2022-11-07T00:21:02.751Z,12.47
2022-11-07T00:23:30.683Z,12.46
2022-11-07T00:26:02.678Z,12.47
2022-11-07T00:28:30.659Z,12.44
2022-11-07T00:31:00.823Z,12.44
2022-11-07T00:33:28.749Z,12.44
2022-11-07T00:35:56.531Z,12.43
2022-11-07T00:38:24.647Z,12.42
2022-11-07T00:40:56.402Z,12.37
2022-11-07T00:43:24.763Z,12.43
2022-11-07T00:45:53.056Z,12.45
2022-11-07T00:48:22.512Z,12.45
2022-11-07T00:50:50.450Z,12.46
2022-11-07T00:53:18.296Z,12.48
2022-11-07T00:55:46.461Z,12.52
2022-11-07T00:58:14.663Z,12.52
2022-11-07T01:00:42.801Z,12.55
2022-11-07T01:03:28.257Z,12.57
2022-11-07T01:05:58.905Z,12.61
2022-11-07T01:08:26.847Z,12.58
2022-11-07T01:10:54.732Z,12.61
2022-11-07T01:13:23.731Z,12.64
2022-11-07T01:15:52.374Z,12.57
2022-11-07T01:18:20.563Z,12.64
2022-11-07T01:20:49.552Z,12.66
2022-11-07T01:23:18.960Z,12.64
2022-11-07T01:25:47.487Z,12.62
2022-11-07T01:28:15.842Z,12.65
2022-11-07T01:30:45.610Z,12.65
2022-11-07T01:33:14.106Z,12.65
2022-11-07T01:35:42.416Z,12.62
2022-11-07T01:38:10.452Z,12.60
2022-11-07T01:40:58.106Z,12.57
2022-11-07T01:43:43.341Z,12.49
2022-11-07T01:46:11.596Z,12.51
2022-11-07T01:48:40.794Z,12.52
2022-11-07T01:51:09.492Z,12.49
2022-11-07T01:53:37.695Z,12.46
2022-11-07T01:56:11.416Z,12.41
2022-11-07T01:58:39.404Z,12.37
2022-11-07T02:01:07.330Z,12.36
2022-11-07T02:03:36.871Z,12.34
2022-11-07T02:06:10.774Z,12.32
2022-11-07T02:08:41.257Z,12.29
2022-11-07T02:11:12.363Z,12.28
2022-11-07T02:13:40.278Z,12.27
2022-11-07T02:16:08.880Z,12.26
2022-11-07T02:18:39.197Z,12.24
2022-11-07T02:21:13.661Z,12.21
2022-11-07T02:23:50.374Z,12.21
2022-11-07T02:26:20.490Z,12.18
2022-11-07T02:28:49.871Z,12.16
2022-11-07T02:31:18.276Z,12.14
2022-11-07T02:33:46.300Z,12.13
2022-11-07T02:36:16.710Z,12.15
2022-11-07T02:38:47.067Z,12.11
2022-11-07T02:41:19.984Z,12.13
2022-11-07T02:43:53.257Z,12.13
2022-11-07T02:46:23.160Z,12.12
2022-11-07T02:48:53.514Z,12.14
2022-11-07T02:51:21.305Z,12.13
2022-11-07T02:53:49.299Z,12.12
2022-11-07T02:56:17.186Z,12.12
2022-11-07T02:58:46.532Z,12.10
2022-11-07T03:01:15.100Z,12.10
2022-11-07T03:03:45.022Z,12.09
2022-11-07T03:06:15.646Z,12.06
2022-11-07T03:08:44.134Z,12.03
2022-11-07T03:11:12.831Z,12.03
2022-11-07T03:13:40.985Z,12.02
2022-11-07T03:16:12.258Z,11.98
2022-11-07T03:18:40.135Z,11.97
2022-11-07T03:21:08.622Z,11.97
2022-11-07T03:23:37.266Z,11.95
2022-11-07T03:26:05.768Z,11.96
2022-11-07T03:28:34.324Z,11.97
2022-11-07T03:31:03.349Z,11.96
2022-11-07T03:33:33.536Z,12.01
2022-11-07T03:36:01.475Z,12.02
2022-11-07T03:38:29.595Z,12.03
2022-11-07T03:40:57.414Z,12.06
2022-11-07T03:43:25.170Z,12.08
2022-11-07T03:45:52.939Z,12.06
2022-11-07T03:48:20.890Z,12.07
2022-11-07T03:50:50.255Z,12.09
2022-11-07T03:53:22.405Z,12.09
2022-11-07T03:55:55.515Z,12.10
2022-11-07T03:58:24.430Z,12.12
2022-11-07T04:00:52.422Z,12.13
2022-11-07T04:03:20.472Z,12.12
2022-11-07T04:05:48.301Z,12.06
2022-11-07T04:08:17.889Z,12.03
2022-11-07T04:10:45.802Z,12.03
2022-11-07T04:13:31.350Z,12.02
2022-11-07T04:16:17.850Z,12.01
2022-11-07T04:18:45.819Z,11.98
2022-11-07T04:21:13.636Z,11.97
2022-11-07T04:23:43.293Z,11.96
2022-11-07T04:26:28.545Z,11.95
2022-11-07T04:28:56.338Z,11.94
2022-11-07T04:31:24.210Z,11.87
2022-11-07T04:33:52.911Z,11.85
2022-11-07T04:36:20.649Z,11.83
2022-11-07T04:38:49.972Z,11.80
2022-11-07T04:41:22.025Z,11.77
2022-11-07T04:43:49.838Z,11.79
2022-11-07T04:46:18.428Z,11.77
2022-11-07T04:48:46.572Z,11.76
2022-11-07T04:51:17.919Z,11.75
2022-11-07T04:53:45.803Z,11.72
2022-11-07T04:56:15.160Z,11.71
2022-11-07T04:58:42.923Z,11.69
2022-11-07T05:01:10.674Z,11.69
2022-11-07T05:03:41.806Z,11.68
2022-11-07T05:06:13.683Z,11.66
2022-11-07T05:08:41.417Z,11.67
2022-11-07T05:11:09.172Z,11.68
2022-11-07T05:13:38.241Z,11.67
2022-11-07T05:16:06.509Z,11.68
2022-11-07T05:18:34.285Z,11.65
2022-11-07T05:21:02.067Z,11.64
2022-11-07T05:23:28.839Z,11.63
2022-11-07T05:25:56.919Z,11.64
2022-11-07T05:28:35.279Z,11.53
2022-11-07T05:31:08.159Z,11.57
2022-11-07T05:33:36.309Z,11.58
2022-11-07T05:36:15.062Z,11.57
2022-11-07T05:38:43.945Z,11.57
2022-11-07T05:41:12.089Z,11.57
2022-11-07T05:43:41.240Z,11.56
2022-11-07T05:46:11.059Z,11.56
2022-11-07T05:48:38.900Z,11.56
2022-11-07T05:51:08.577Z,11.55
2022-11-07T05:53:36.677Z,11.51
2022-11-07T05:56:04.947Z,11.53
2022-11-07T05:58:32.752Z,11.52
2022-11-07T06:01:05.411Z,11.54
2022-11-07T06:03:34.939Z,11.53
2022-11-07T06:06:03.274Z,11.55
2022-11-07T06:08:31.075Z,11.58
2022-11-07T06:10:59.060Z,11.63
2022-11-07T06:13:26.894Z,11.67
2022-11-07T06:15:54.698Z,11.69
2022-11-07T06:18:22.813Z,11.75
2022-11-07T06:20:51.974Z,11.77
2022-11-07T06:23:20.474Z,11.79
2022-11-07T06:25:49.154Z,11.82
2022-11-07T06:28:17.139Z,11.85
2022-11-07T06:30:45.773Z,11.85
2022-11-07T06:33:16.058Z,11.89
2022-11-07T06:35:44.909Z,11.90
2022-11-07T06:38:15.682Z,11.92
2022-11-07T06:40:43.856Z,11.95
2022-11-07T06:43:14.225Z,11.97
2022-11-07T06:45:43.787Z,11.98
2022-11-07T06:48:12.510Z,12.00
2022-11-07T06:50:40.523Z,12.03
2022-11-07T06:53:10.263Z,12.08
2022-11-07T06:55:40.382Z,12.09
2022-11-07T06:58:08.682Z,12.11
2022-11-07T07:00:38.219Z,12.12
2022-11-07T07:03:09.026Z,12.12
2022-11-07T07:05:36.969Z,12.15
2022-11-07T07:08:05.245Z,12.13
2022-11-07T07:10:37.946Z,12.15
2022-11-07T07:13:07.073Z,12.19
2022-11-07T07:15:50.001Z,12.21
2022-11-07T07:18:19.549Z,12.25
2022-11-07T07:20:47.804Z,12.29
2022-11-07T07:23:15.832Z,12.30
2022-11-07T07:25:43.598Z,12.33
2022-11-07T07:28:12.837Z,12.35
2022-11-07T07:30:48.647Z,12.38
2022-11-07T07:33:18.662Z,12.41
2022-11-07T07:35:47.168Z,12.45
2022-11-07T07:38:14.933Z,12.49
2022-11-07T07:40:42.934Z,12.52
2022-11-07T07:43:12.295Z,12.57
2022-11-07T07:45:40.235Z,12.57
2022-11-07T07:48:08.424Z,12.63
2022-11-07T07:50:36.175Z,12.68
2022-11-07T07:53:14.995Z,12.72
2022-11-07T07:55:43.440Z,12.79
2022-11-07T07:58:13.428Z,12.84
2022-11-07T08:00:41.846Z,12.85
2022-11-07T08:03:11.770Z,12.91
2022-11-07T08:05:40.603Z,12.91
2022-11-07T08:08:09.466Z,12.94
2022-11-07T08:10:42.512Z,12.97
2022-11-07T08:13:12.598Z,13.00
2022-11-07T08:15:40.928Z,13.06
2022-11-07T08:18:08.778Z,13.09
2022-11-07T08:20:36.903Z,13.13
2022-11-07T08:23:14.612Z,13.13
2022-11-07T08:25:44.740Z,13.17
2022-11-07T08:28:14.302Z,13.20
2022-11-07T08:30:42.293Z,13.27
2022-11-07T08:33:10.689Z,13.33
2022-11-07T08:35:42.509Z,13.39
2022-11-07T08:38:10.904Z,13.45
2022-11-07T08:40:39.860Z,13.47
2022-11-07T08:43:08.104Z,13.53
2022-11-07T08:45:37.326Z,13.56
2022-11-07T08:48:05.539Z,13.58
2022-11-07T08:50:33.469Z,13.62
2022-11-07T08:53:14.971Z,13.66
2022-11-07T08:55:42.749Z,13.69
2022-11-07T08:58:10.580Z,13.72
2022-11-07T09:00:39.918Z,13.78
2022-11-07T09:03:44.401Z,13.84
2022-11-07T09:05:58.513Z,13.89
2022-11-07T09:08:26.713Z,13.93
2022-11-07T09:10:54.782Z,14.00
2022-11-07T09:13:22.787Z,14.07
2022-11-07T09:15:52.292Z,14.15
2022-11-07T09:18:20.653Z,14.22
2022-11-07T09:20:48.670Z,14.27
2022-11-07T09:23:16.702Z,14.31
2022-11-07T09:25:44.831Z,14.36
2022-11-07T09:28:13.038Z,14.43
2022-11-07T09:30:41.107Z,14.49
2022-11-07T09:33:10.484Z,14.50
2022-11-07T09:35:38.346Z,14.59
2022-11-07T09:38:06.127Z,14.61
2022-11-07T09:40:43.727Z,14.64
2022-11-07T09:43:29.562Z,14.62
2022-11-07T09:46:05.533Z,14.62
2022-11-07T09:48:44.162Z,14.57
2022-11-07T09:51:15.908Z,14.59
2022-11-07T09:53:47.388Z,14.56
2022-11-07T09:56:16.703Z,14.57
2022-11-07T09:58:46.691Z,14.54
2022-11-07T10:01:17.742Z,14.54
2022-11-07T10:06:41.557Z,14.51
2022-11-07T10:09:15.783Z,14.50
2022-11-07T10:11:48.625Z,14.50
2022-11-07T10:14:25.987Z,14.44
2022-11-07T10:17:09.281Z,14.38
2022-11-07T10:19:51.371Z,14.37
2022-11-07T10:22:41.723Z,14.36
2022-11-07T10:25:21.186Z,14.37
2022-11-07T10:27:55.887Z,14.39
2022-11-07T10:30:23.655Z,14.39
2022-11-07T10:33:01.261Z,14.39
2022-11-07T10:35:33.236Z,14.42
2022-11-07T10:38:04.767Z,14.47
2022-11-07T10:40:38.452Z,14.42
2022-11-07T10:43:10.401Z,14.44
2022-11-07T10:45:39.885Z,14.44
2022-11-07T10:48:08.081Z,14.44
2022-11-07T10:50:39.965Z,14.44
2022-11-07T10:53:11.720Z,14.49
2022-11-07T10:55:45.303Z,14.52
2022-11-07T10:58:19.961Z,14.57
2022-11-07T11:00:59.679Z,14.61
2022-11-07T11:03:43.332Z,14.73
2022-11-07T11:06:22.474Z,14.75
2022-11-07T11:08:52.311Z,14.89
2022-11-07T11:11:29.764Z,14.96
2022-11-07T11:14:07.051Z,15.00
2022-11-07T11:16:38.343Z,15.07
2022-11-07T11:19:08.305Z,15.06
2022-11-07T11:21:46.337Z,15.10
2022-11-07T11:24:21.367Z,15.17
2022-11-07T11:26:51.297Z,15.20
2022-11-07T11:29:33.262Z,15.19
2022-11-07T11:32:05.896Z,15.21
2022-11-07T11:34:43.574Z,15.23
2022-11-07T11:37:17.433Z,15.28
2022-11-07T11:39:50.048Z,15.34
2022-11-07T11:42:31.556Z,15.35
2022-11-07T11:45:06.139Z,15.44
2022-11-07T11:47:38.848Z,15.49
2022-11-07T11:50:15.611Z,15.53
2022-11-07T11:52:46.239Z,15.60
2022-11-07T11:55:15.266Z,15.62
2022-11-07T11:57:51.138Z,15.57
2022-11-07T12:00:20.869Z,15.58
2022-11-07T12:03:24.691Z,15.57
2022-11-07T12:06:10.803Z,15.61
2022-11-07T12:09:03.817Z,15.68
2022-11-07T12:11:39.384Z,15.71
2022-11-07T12:14:29.032Z,15.71
2022-11-07T12:17:02.785Z,15.75
2022-11-07T12:19:38.872Z,15.73
2022-11-07T12:22:14.326Z,15.78
2022-11-07T12:24:49.210Z,15.79
2022-11-07T12:27:27.920Z,15.82
2022-11-07T12:30:11.673Z,15.89
2022-11-07T12:32:53.507Z,15.91
2022-11-07T12:35:46.102Z,15.89
2022-11-07T12:38:50.684Z,15.92
2022-11-07T12:41:29.516Z,15.99
2022-11-07T12:44:08.511Z,16.01
2022-11-07T12:46:46.913Z,15.95
2022-11-07T12:49:32.536Z,15.93
2022-11-07T12:52:12.112Z,15.98
2022-11-07T12:54:50.541Z,15.97
2022-11-07T12:57:23.094Z,15.97
2022-11-07T12:59:55.792Z,16.01
2022-11-07T13:02:37.709Z,15.96
2022-11-07T13:05:19.006Z,15.92
2022-11-07T13:07:54.231Z,15.90
2022-11-07T13:10:27.662Z,15.91
2022-11-07T13:13:01.581Z,15.92
2022-11-07T13:15:42.182Z,15.92
2022-11-07T13:18:25.768Z,15.95
2022-11-07T13:21:01.043Z,15.97
2022-11-07T13:23:29.631Z,16.00
2022-11-07T13:26:04.200Z,16.05
2022-11-07T13:28:55.991Z,16.06
2022-11-07T13:31:38.057Z,16.06
2022-11-07T13:34:24.590Z,16.08
2022-11-07T13:36:57.860Z,16.10
2022-11-07T13:39:26.712Z,16.13
2022-11-07T13:41:55.275Z,16.15
2022-11-07T13:44:28.926Z,16.17
2022-11-07T13:46:59.388Z,16.19
2022-11-07T13:49:31.306Z,16.21
2022-11-07T13:52:04.511Z,16.22
2022-11-07T13:54:38.972Z,16.27
2022-11-07T13:57:14.260Z,16.30
2022-11-07T13:59:48.549Z,16.28
2022-11-07T14:02:21.415Z,16.23
2022-11-07T14:07:45.322Z,16.21
2022-11-07T14:10:20.788Z,16.24
2022-11-07T14:12:49.340Z,16.22
2022-11-07T14:15:18.872Z,16.29
2022-11-07T14:17:47.337Z,16.27
2022-11-07T14:20:18.459Z,16.35
2022-11-07T14:22:51.206Z,16.36
2022-11-07T14:25:24.203Z,16.38
2022-11-07T14:27:52.108Z,16.37
2022-11-07T14:30:22.987Z,16.36
2022-11-07T14:32:53.460Z,16.35
2022-11-07T14:35:24.930Z,16.32
2022-11-07T14:37:53.208Z,16.28
2022-11-07T14:40:21.417Z,16.20
2022-11-07T14:42:49.895Z,16.19
2022-11-07T14:45:46.841Z,16.18
2022-11-07T14:48:12.676Z,16.13
2022-11-07T14:50:41.490Z,16.12
2022-11-07T14:53:12.010Z,16.11
2022-11-07T14:55:44.778Z,16.12
2022-11-07T14:58:13.892Z,16.12
2022-11-07T15:00:53.543Z,16.13
2022-11-07T15:03:23.196Z,16.15
2022-11-07T15:05:51.128Z,16.14
2022-11-07T15:08:33.711Z,16.10
2022-11-07T15:11:03.909Z,16.12
2022-11-07T15:13:34.120Z,16.08
2022-11-07T15:16:06.572Z,16.07
2022-11-07T15:18:39.556Z,16.07
2022-11-07T15:21:08.220Z,16.05
2022-11-07T15:23:36.460Z,16.04
2022-11-07T15:26:13.117Z,16.01
2022-11-07T15:28:49.343Z,15.96
2022-11-07T15:31:23.043Z,15.96
2022-11-07T15:33:51.734Z,15.97
2022-11-07T15:36:19.934Z,15.96
2022-11-07T15:38:49.578Z,15.93
2022-11-07T15:41:17.942Z,15.95
2022-11-07T15:43:46.405Z,15.90
2022-11-07T15:46:25.488Z,15.90
2022-11-07T15:48:53.782Z,15.89
2022-11-07T15:51:21.807Z,15.94
2022-11-07T15:53:50.162Z,15.97
2022-11-07T15:56:23.145Z,15.98
2022-11-07T15:58:51.212Z,16.01
2022-11-07T16:01:19.090Z,16.03
2022-11-07T16:03:48.369Z,16.02
2022-11-07T16:06:19.253Z,16.04
2022-11-07T16:08:47.165Z,16.04
2022-11-07T16:11:15.065Z,16.04
2022-11-07T16:13:42.820Z,16.04
2022-11-07T16:16:16.849Z,16.06
2022-11-07T16:18:46.953Z,16.06
2022-11-07T16:21:16.194Z,16.04
2022-11-07T16:23:44.687Z,16.03
2022-11-07T16:26:14.763Z,16.05
2022-11-07T16:28:42.963Z,16.04
2022-11-07T16:31:10.820Z,16.05
2022-11-07T16:33:39.011Z,16.04
2022-11-07T16:36:18.993Z,16.01
2022-11-07T16:38:46.861Z,16.02
2022-11-07T16:41:14.860Z,16.02
2022-11-07T16:43:42.866Z,16.03
2022-11-07T16:46:14.985Z,15.99
2022-11-07T16:48:43.750Z,15.98
2022-11-07T16:51:15.725Z,15.95
2022-11-07T16:53:45.499Z,15.90
2022-11-07T16:56:23.465Z,15.87
2022-11-07T16:58:51.453Z,15.87
2022-11-07T17:01:19.319Z,15.87
2022-11-07T17:03:47.225Z,15.84
2022-11-07T17:06:20.801Z,15.83
2022-11-07T17:08:50.050Z,15.84
2022-11-07T17:11:19.324Z,15.82
2022-11-07T17:13:47.645Z,15.80
2022-11-07T17:16:19.771Z,15.78
2022-11-07T17:18:48.983Z,15.75
2022-11-07T17:21:25.985Z,15.73
2022-11-07T17:23:57.123Z,15.72
2022-11-07T17:26:28.060Z,15.71
2022-11-07T17:28:55.878Z,15.68
2022-11-07T17:31:23.968Z,15.69
2022-11-07T17:33:51.930Z,15.70
2022-11-07T17:36:35.244Z,15.63
2022-11-07T17:39:11.813Z,15.66
2022-11-07T17:41:40.448Z,15.62
2022-11-07T17:44:08.316Z,15.66
2022-11-07T17:46:37.470Z,15.66
2022-11-07T17:49:07.811Z,15.62
2022-11-07T17:51:37.013Z,15.66
2022-11-07T17:54:06.810Z,15.66
2022-11-07T17:56:35.165Z,15.63
2022-11-07T17:59:05.185Z,15.64
2022-11-07T18:01:35.065Z,15.63
2022-11-07T18:04:03.459Z,15.62
2022-11-07T18:06:34.548Z,15.65
2022-11-07T18:09:03.360Z,15.67
2022-11-07T18:11:33.437Z,15.61
2022-11-07T18:14:01.383Z,15.67
2022-11-07T18:16:31.797Z,15.68
2022-11-07T18:19:01.202Z,15.71
2022-11-07T18:21:29.557Z,15.73
2022-11-07T18:23:58.453Z,15.76
2022-11-07T18:26:30.622Z,15.76
2022-11-07T18:29:02.483Z,15.76
2022-11-07T18:31:30.342Z,15.73
2022-11-07T18:33:58.966Z,15.77
2022-11-07T18:36:27.772Z,15.77
2022-11-07T18:38:55.695Z,15.78
2022-11-07T18:41:25.111Z,15.77
2022-11-07T18:43:54.345Z,15.77
2022-11-07T18:46:23.556Z,15.78
2022-11-07T18:48:51.682Z,15.77
2022-11-07T18:51:21.652Z,15.76
2022-11-07T18:53:50.148Z,15.79
2022-11-07T18:56:18.583Z,15.81
2022-11-07T18:58:46.767Z,15.81
2022-11-07T19:01:17.434Z,15.82
2022-11-07T19:03:47.268Z,15.84
2022-11-07T19:06:17.289Z,15.83
2022-11-07T19:08:47.305Z,15.85
2022-11-07T19:11:17.748Z,15.85
2022-11-07T19:13:46.874Z,15.83
2022-11-07T19:16:16.862Z,15.84
2022-11-07T19:18:49.444Z,15.84
2022-11-07T19:21:19.849Z,15.80
2022-11-07T19:23:48.340Z,15.77
2022-11-07T19:26:16.232Z,15.76
2022-11-07T19:28:43.968Z,15.75
2022-11-07T19:31:13.129Z,15.71
2022-11-07T19:33:41.192Z,15.68
2022-11-07T19:36:14.927Z,15.64
2022-11-07T19:38:42.701Z,15.64
2022-11-07T19:41:12.293Z,15.64
2022-11-07T19:43:42.412Z,15.63
2022-11-07T19:46:14.530Z,15.61
2022-11-07T19:48:42.853Z,15.59
2022-11-07T19:51:20.941Z,15.58
2022-11-07T19:53:53.203Z,15.55
2022-11-07T19:56:21.253Z,15.55
2022-11-07T19:58:49.093Z,15.55
2022-11-07T20:01:19.157Z,15.54
2022-11-07T20:03:48.063Z,15.55
2022-11-07T20:06:19.998Z,15.55
2022-11-07T20:08:47.828Z,15.56
2022-11-07T20:11:16.509Z,15.54
2022-11-07T20:13:44.391Z,15.55
2022-11-07T20:16:12.265Z,15.53
2022-11-07T20:18:41.897Z,15.51
2022-11-07T20:21:13.182Z,15.50
2022-11-07T20:23:43.156Z,15.48
2022-11-07T20:26:13.621Z,15.46
2022-11-07T20:28:42.016Z,15.46
2022-11-07T20:31:11.361Z,15.43
2022-11-07T20:33:39.251Z,15.39
2022-11-07T20:36:09.712Z,15.39
2022-11-07T20:38:38.310Z,15.37
2022-11-07T20:41:08.508Z,15.36
2022-11-07T20:43:36.760Z,15.38
2022-11-07T20:46:06.559Z,15.39
2022-11-07T20:48:34.863Z,15.41
2022-11-07T20:51:08.368Z,15.39
2022-11-07T20:53:37.243Z,15.39
2022-11-07T20:56:07.942Z,15.40
2022-11-07T20:58:37.283Z,15.41
2022-11-07T21:01:05.369Z,15.44
2022-11-07T21:03:33.537Z,15.45
2022-11-07T21:06:01.964Z,15.45
2022-11-07T21:08:34.484Z,15.45
2022-11-07T21:11:04.892Z,15.42
2022-11-07T21:13:34.098Z,15.40
2022-11-07T21:16:02.704Z,15.39
2022-11-07T21:18:30.474Z,15.38
2022-11-07T21:21:07.070Z,15.37
2022-11-07T21:23:35.129Z,15.33
2022-11-07T21:26:07.826Z,15.27
2022-11-07T21:28:40.527Z,15.28
2022-11-07T21:31:12.224Z,15.24
2022-11-07T21:33:42.143Z,15.25
2022-11-07T21:36:11.719Z,15.24
2022-11-07T21:38:39.845Z,15.23
2022-11-07T21:41:08.317Z,15.22
2022-11-07T21:43:38.062Z,15.20
2022-11-07T21:46:10.450Z,15.16
2022-11-07T21:48:39.165Z,15.10
2022-11-07T21:51:08.799Z,15.09
2022-11-07T21:53:37.941Z,15.05
2022-11-07T21:56:07.373Z,15.04
2022-11-07T21:58:35.209Z,15.01
2022-11-07T22:01:06.116Z,14.96
2022-11-07T22:04:04.285Z,14.92
2022-11-07T22:06:23.360Z,14.88
2022-11-07T22:08:52.535Z,14.85
2022-11-07T22:11:20.690Z,14.82
2022-11-07T22:13:48.785Z,14.80
2022-11-07T22:16:19.894Z,14.80
2022-11-07T22:18:48.972Z,14.77
2022-11-07T22:21:19.799Z,14.77
2022-11-07T22:23:48.085Z,14.76
2022-11-07T22:26:18.086Z,14.74
2022-11-07T22:28:46.720Z,14.72
2022-11-07T22:31:16.689Z,14.69
2022-11-07T22:33:46.286Z,14.69
2022-11-07T22:36:14.743Z,14.67
2022-11-07T22:38:43.716Z,14.65
2022-11-07T22:41:14.934Z,14.62
2022-11-07T22:43:43.203Z,14.59
2022-11-07T22:46:14.743Z,14.58
2022-11-07T22:48:42.724Z,14.54
2022-11-07T22:51:13.586Z,14.52
2022-11-07T22:53:41.395Z,14.45
2022-11-07T22:56:10.414Z,14.45
2022-11-07T22:58:39.331Z,14.43
2022-11-07T23:01:08.775Z,14.41
2022-11-07T23:03:36.530Z,14.39
2022-11-07T23:06:05.181Z,14.32
2022-11-07T23:08:35.027Z,14.33
